createdAt,value
2024-03-14T00:00:45.855Z,7.30
2024-03-14T00:03:12.838Z,12.43
2024-03-14T00:05:40.127Z,7.18
2024-03-14T00:08:06.704Z,12.65
2024-03-14T00:10:33.131Z,10.55
2024-03-14T00:12:59.602Z,8.77
2024-03-14T00:15:26.092Z,8.85
2024-03-14T00:17:52.760Z,7.63
2024-03-14T00:20:19.887Z,8.23
2024-03-14T00:22:46.854Z,8.77
2024-03-14T00:25:13.768Z,7.13
2024-03-14T00:27:40.255Z,10.40
2024-03-14T00:30:09.663Z,11.18
2024-03-14T00:32:36.299Z,8.70
2024-03-14T00:35:03.810Z,7.78
2024-03-14T00:37:30.621Z,7.38
2024-03-14T00:39:57.091Z,9.95
2024-03-14T00:42:25.339Z,9.85
2024-03-14T00:44:52.684Z,9.82
2024-03-14T00:47:19.418Z,8.07
2024-03-14T00:49:45.922Z,8.60
2024-03-14T00:52:12.615Z,7.82
2024-03-14T00:54:39.383Z,6.90
2024-03-14T00:57:07.491Z,6.78
2024-03-14T00:59:33.962Z,7.53
2024-03-14T01:02:00.883Z,6.65
2024-03-14T01:04:30.289Z,7.00
2024-03-14T01:06:56.755Z,11.23
2024-03-14T01:09:26.613Z,11.10
2024-03-14T01:11:56.230Z,7.15
2024-03-14T01:14:22.883Z,6.38
2024-03-14T01:16:51.857Z,6.63
2024-03-14T01:19:18.370Z,6.10
2024-03-14T01:21:44.925Z,6.40
2024-03-14T01:24:11.326Z,6.85
2024-03-14T01:26:38.024Z,6.15
2024-03-14T01:29:04.776Z,6.45
2024-03-14T01:31:33.771Z,5.97
2024-03-14T01:34:00.314Z,6.30
2024-03-14T01:36:26.789Z,6.03
2024-03-14T01:38:53.519Z,8.95
2024-03-14T01:41:21.021Z,5.85
2024-03-14T01:44:07.780Z,6.55
2024-03-14T01:46:34.641Z,5.45
2024-03-14T01:49:02.046Z,5.68
2024-03-14T01:51:32.101Z,11.32
2024-03-14T01:53:58.684Z,7.25
2024-03-14T01:56:25.355Z,7.68
2024-03-14T01:58:52.835Z,6.20
2024-03-14T02:01:20.196Z,5.65
2024-03-14T02:04:02.208Z,6.95
2024-03-14T02:06:32.634Z,4.63
2024-03-14T02:08:59.587Z,5.15
2024-03-14T02:11:26.048Z,5.30
2024-03-14T02:13:52.462Z,5.32
2024-03-14T02:16:18.886Z,5.35
2024-03-14T02:18:46.834Z,5.93
2024-03-14T02:21:13.593Z,5.45
2024-03-14T02:23:40.026Z,7.70
2024-03-14T02:26:08.202Z,5.80
2024-03-14T02:28:34.837Z,5.82
2024-03-14T02:31:01.298Z,5.40
2024-03-14T02:33:27.794Z,4.35
2024-03-14T02:35:54.247Z,9.20
2024-03-14T02:38:21.849Z,7.50
2024-03-14T02:40:48.272Z,7.28
2024-03-14T02:43:14.635Z,5.70
2024-03-14T02:45:41.014Z,6.07
2024-03-14T02:48:07.496Z,6.05
2024-03-14T02:50:34.253Z,6.60
2024-03-14T02:53:00.697Z,5.55
2024-03-14T02:55:28.755Z,5.45
2024-03-14T02:57:55.720Z,5.47
2024-03-14T03:00:23.433Z,6.82
2024-03-14T03:02:49.938Z,5.72
2024-03-14T03:05:16.354Z,7.20
2024-03-14T03:07:45.266Z,5.72
2024-03-14T03:10:13.074Z,6.28
2024-03-14T03:12:42.771Z,6.35
2024-03-14T03:15:09.630Z,7.03
2024-03-14T03:17:36.213Z,9.35
2024-03-14T03:20:10.308Z,7.50
2024-03-14T03:22:57.326Z,5.78
2024-03-14T03:25:24.784Z,6.88
2024-03-14T03:27:51.387Z,8.93
2024-03-14T03:30:18.130Z,6.95
2024-03-14T03:32:47.859Z,7.35
2024-03-14T03:35:20.913Z,7.68
2024-03-14T03:37:48.853Z,7.07
2024-03-14T03:40:23.193Z,11.70
2024-03-14T03:42:50.148Z,7.88
2024-03-14T03:45:16.755Z,10.88
2024-03-14T03:47:43.260Z,12.00
2024-03-14T03:50:10.216Z,7.35
2024-03-14T03:52:37.202Z,8.57
2024-03-14T03:55:07.248Z,10.27
2024-03-14T03:57:34.029Z,8.55
2024-03-14T04:00:00.808Z,8.52
2024-03-14T04:02:28.165Z,10.48
2024-03-14T04:04:58.740Z,8.50
2024-03-14T04:07:29.829Z,8.80
2024-03-14T04:09:56.220Z,8.73
2024-03-14T04:12:22.639Z,9.02
2024-03-14T04:14:50.123Z,15.07
2024-03-14T04:17:17.214Z,12.60
2024-03-14T04:19:47.177Z,9.07
2024-03-14T04:22:15.433Z,11.20
2024-03-14T04:24:43.059Z,10.43
2024-03-14T04:27:09.483Z,10.40
2024-03-14T04:29:36.332Z,9.95
2024-03-14T04:32:02.820Z,11.45
2024-03-14T04:34:29.221Z,11.10
2024-03-14T04:36:57.137Z,12.52
2024-03-14T04:39:25.001Z,13.23
2024-03-14T04:41:53.789Z,12.18
2024-03-14T04:44:20.524Z,12.38
2024-03-14T04:46:46.962Z,14.30
2024-03-14T04:49:13.590Z,14.30
2024-03-14T04:51:40.592Z,13.52
2024-03-14T04:54:07.347Z,13.85
2024-03-14T04:56:33.759Z,13.82
2024-03-14T04:59:00.869Z,16.35
2024-03-14T05:01:29.421Z,16.65
2024-03-14T05:03:57.652Z,18.33
2024-03-14T05:06:24.084Z,13.15
2024-03-14T05:08:50.659Z,19.25
2024-03-14T05:11:17.187Z,16.25
2024-03-14T05:13:43.608Z,15.98
2024-03-14T05:16:12.830Z,13.07
2024-03-14T05:18:39.369Z,16.17
2024-03-14T05:21:11.241Z,14.68
2024-03-14T05:23:37.742Z,18.13
2024-03-14T05:26:07.099Z,18.05
2024-03-14T05:28:33.614Z,20.58
2024-03-14T05:30:59.965Z,15.38
2024-03-14T05:33:26.467Z,18.77
2024-03-14T05:35:53.007Z,14.55
2024-03-14T05:38:19.455Z,19.98
2024-03-14T05:40:46.801Z,14.30
2024-03-14T05:43:13.244Z,18.35
2024-03-14T05:45:39.731Z,20.88
2024-03-14T05:48:10.558Z,22.70
2024-03-14T05:50:37.316Z,22.60
2024-03-14T05:53:04.072Z,23.88
2024-03-14T05:55:33.206Z,20.60
2024-03-14T05:57:59.567Z,18.92
2024-03-14T06:00:26.017Z,20.27
2024-03-14T06:02:55.423Z,16.45
2024-03-14T06:05:22.134Z,19.08
2024-03-14T06:07:48.515Z,17.40
2024-03-14T06:10:16.034Z,24.50
2024-03-14T06:12:46.394Z,21.13
2024-03-14T06:15:15.565Z,14.05
2024-03-14T06:17:45.762Z,16.70
2024-03-14T06:20:12.365Z,19.40
2024-03-14T06:22:40.888Z,15.55
2024-03-14T06:25:08.167Z,16.73
2024-03-14T06:27:34.982Z,17.55
2024-03-14T06:30:01.499Z,18.83
2024-03-14T06:32:28.339Z,18.88
2024-03-14T06:34:54.798Z,14.77
2024-03-14T06:37:21.164Z,16.45
2024-03-14T06:39:48.475Z,16.95
2024-03-14T06:42:16.478Z,17.10
2024-03-14T06:44:43.767Z,17.20
2024-03-14T06:47:10.512Z,19.00
2024-03-14T06:49:38.769Z,17.63
2024-03-14T06:52:07.172Z,15.80
2024-03-14T06:54:33.935Z,14.23
2024-03-14T06:57:02.197Z,19.17
2024-03-14T06:59:29.265Z,14.77
2024-03-14T07:01:57.137Z,16.15
2024-03-14T07:04:24.723Z,11.98
2024-03-14T07:06:53.072Z,13.45
2024-03-14T07:09:19.878Z,13.15
2024-03-14T07:11:47.145Z,11.40
2024-03-14T07:14:13.681Z,19.10
2024-03-14T07:16:40.231Z,11.40
2024-03-14T07:19:09.592Z,16.85
2024-03-14T07:21:36.158Z,10.57
2024-03-14T07:24:02.784Z,11.88
2024-03-14T07:26:35.389Z,12.68
2024-03-14T07:29:04.529Z,10.95
2024-03-14T07:31:30.948Z,10.20
2024-03-14T07:33:58.241Z,11.40
2024-03-14T07:36:25.476Z,8.77
2024-03-14T07:38:51.999Z,9.25
2024-03-14T07:41:21.587Z,9.13
2024-03-14T07:43:52.069Z,11.95
2024-03-14T07:46:26.526Z,8.63
2024-03-14T07:48:54.926Z,8.60
2024-03-14T07:51:21.515Z,8.65
2024-03-14T07:53:48.679Z,12.95
2024-03-14T07:56:15.196Z,7.80
2024-03-14T07:58:43.953Z,8.27
2024-03-14T08:01:19.740Z,7.68
2024-03-14T08:03:49.824Z,13.38
2024-03-14T08:06:17.821Z,7.50
2024-03-14T08:08:44.752Z,8.23
2024-03-14T08:11:13.104Z,9.82
2024-03-14T08:13:40.301Z,8.10
2024-03-14T08:16:15.570Z,6.78
2024-03-14T08:18:45.991Z,6.38
2024-03-14T08:21:13.928Z,12.77
2024-03-14T08:23:44.251Z,7.25
2024-03-14T08:26:11.246Z,6.53
2024-03-14T08:28:39.534Z,8.82
2024-03-14T08:31:08.864Z,6.35
2024-03-14T08:33:37.963Z,6.57
2024-03-14T08:36:05.458Z,5.80
2024-03-14T08:38:31.882Z,6.30
2024-03-14T08:41:01.079Z,4.07
2024-03-14T08:43:28.012Z,5.47
2024-03-14T08:45:57.681Z,5.63
2024-03-14T08:48:24.411Z,6.18
2024-03-14T08:50:50.990Z,5.78
2024-03-14T08:53:18.641Z,7.30
2024-03-14T08:56:02.809Z,5.68
2024-03-14T08:58:31.170Z,5.13
2024-03-14T09:00:58.191Z,4.85
2024-03-14T09:03:24.640Z,5.03
2024-03-14T09:05:51.584Z,4.15
2024-03-14T09:08:22.987Z,5.88
2024-03-14T09:10:49.885Z,7.38
2024-03-14T09:13:16.315Z,4.18
2024-03-14T09:15:45.568Z,4.95
2024-03-14T09:18:12.203Z,6.93
2024-03-14T09:20:39.888Z,3.95
2024-03-14T09:23:06.402Z,4.10
2024-03-14T09:25:32.838Z,5.50
2024-03-14T09:28:00.709Z,5.80
2024-03-14T09:30:27.460Z,4.63
2024-03-14T09:32:54.587Z,3.78
2024-03-14T09:35:28.591Z,4.28
2024-03-14T09:37:56.038Z,6.88
2024-03-14T09:40:22.723Z,4.60
2024-03-14T09:42:58.024Z,4.85
2024-03-14T09:45:25.143Z,4.55
2024-03-14T09:47:51.978Z,4.18
2024-03-14T09:50:20.082Z,4.15
2024-03-14T09:52:48.510Z,5.45
2024-03-14T09:55:15.834Z,2.95
2024-03-14T09:57:42.658Z,4.38
2024-03-14T10:00:10.920Z,5.75
2024-03-14T10:02:41.396Z,3.67
2024-03-14T10:05:12.492Z,3.28
2024-03-14T10:07:39.638Z,3.03
2024-03-14T10:10:06.810Z,3.53
2024-03-14T10:12:34.466Z,4.10
2024-03-14T10:15:03.477Z,3.67
2024-03-14T10:17:33.353Z,2.72
2024-03-14T10:20:00.606Z,2.85
2024-03-14T10:22:27.465Z,3.25
2024-03-14T10:24:53.875Z,4.20
2024-03-14T10:27:20.496Z,2.95
2024-03-14T10:29:47.160Z,2.85
2024-03-14T10:32:13.657Z,2.47
2024-03-14T10:34:40.336Z,2.28
2024-03-14T10:37:16.750Z,2.58
2024-03-14T10:39:50.162Z,2.83
2024-03-14T10:42:19.160Z,3.33
2024-03-14T10:44:45.664Z,2.92
2024-03-14T10:47:12.718Z,3.67
2024-03-14T10:49:39.765Z,5.75
2024-03-14T10:52:11.584Z,5.68
2024-03-14T10:54:38.633Z,4.07
2024-03-14T10:57:06.855Z,2.50
2024-03-14T10:59:35.830Z,3.38
2024-03-14T11:02:02.650Z,3.47
2024-03-14T11:04:29.448Z,3.47
2024-03-14T11:06:58.403Z,3.50
2024-03-14T11:09:31.014Z,3.60
2024-03-14T11:12:04.880Z,2.78
2024-03-14T11:14:35.474Z,2.75
2024-03-14T11:17:03.280Z,3.33
2024-03-14T11:19:31.206Z,5.88
2024-03-14T11:21:59.172Z,2.78
2024-03-14T11:24:30.530Z,3.20
2024-03-14T11:26:59.439Z,2.95
2024-03-14T11:29:26.523Z,3.03
2024-03-14T11:32:12.892Z,2.55
2024-03-14T11:34:39.383Z,2.63
2024-03-14T11:37:06.304Z,2.63
2024-03-14T11:39:37.494Z,3.28
2024-03-14T11:42:13.587Z,2.83
2024-03-14T11:44:44.072Z,3.42
2024-03-14T11:47:15.225Z,5.38
2024-03-14T11:49:44.429Z,2.13
2024-03-14T11:52:16.673Z,2.42
2024-03-14T11:54:43.190Z,1.63
2024-03-14T11:57:10.255Z,1.80
2024-03-14T11:59:43.717Z,6.40
2024-03-14T12:02:17.526Z,1.85
2024-03-14T12:04:48.480Z,5.70
2024-03-14T12:07:14.981Z,1.60
2024-03-14T12:09:42.486Z,1.60
2024-03-14T12:12:09.763Z,1.63
2024-03-14T12:14:36.518Z,1.77
2024-03-14T12:17:02.963Z,1.40
2024-03-14T12:19:29.438Z,2.95
2024-03-14T12:21:56.175Z,5.07
2024-03-14T12:24:25.550Z,1.50
2024-03-14T12:26:54.349Z,1.70
2024-03-14T12:29:25.739Z,1.55
2024-03-14T12:31:53.184Z,1.17
2024-03-14T12:34:19.719Z,6.20
2024-03-14T12:36:48.540Z,1.90
2024-03-14T12:39:16.782Z,1.58
2024-03-14T12:41:43.350Z,3.38
2024-03-14T12:44:10.072Z,1.50
2024-03-14T12:46:37.101Z,1.70
2024-03-14T12:49:04.729Z,1.40
2024-03-14T12:51:33.397Z,2.80
2024-03-14T12:54:04.916Z,1.55
2024-03-14T12:56:33.090Z,1.53
2024-03-14T12:58:59.639Z,3.47
2024-03-14T13:01:29.976Z,2.70
2024-03-14T13:04:00.008Z,1.70
2024-03-14T13:06:28.345Z,2.13
2024-03-14T13:09:30.983Z,1.70
2024-03-14T13:12:15.962Z,2.03
2024-03-14T13:14:43.210Z,1.60
2024-03-14T13:17:12.769Z,1.55
2024-03-14T13:19:39.402Z,6.88
2024-03-14T13:22:06.956Z,1.50
2024-03-14T13:24:33.993Z,1.60
2024-03-14T13:27:00.589Z,4.85
2024-03-14T13:29:27.825Z,1.25
2024-03-14T13:31:54.580Z,1.35
2024-03-14T13:34:22.163Z,1.15
2024-03-14T13:36:49.248Z,2.05
2024-03-14T13:39:16.471Z,1.80
2024-03-14T13:41:45.373Z,1.92
2024-03-14T13:44:15.121Z,1.92
2024-03-14T13:46:45.788Z,1.92
2024-03-14T13:49:13.026Z,2.08
2024-03-14T13:51:40.403Z,2.25
2024-03-14T13:54:07.581Z,4.38
2024-03-14T13:56:34.052Z,2.05
2024-03-14T13:59:03.282Z,2.50
2024-03-14T14:01:34.188Z,2.30
2024-03-14T14:04:03.358Z,4.13
2024-03-14T14:06:29.875Z,1.90
2024-03-14T14:08:56.739Z,2.05
2024-03-14T14:11:25.174Z,1.70
2024-03-14T14:13:51.751Z,3.20
2024-03-14T14:16:19.644Z,1.90
2024-03-14T14:18:46.078Z,2.20
2024-03-14T14:21:12.698Z,4.25
2024-03-14T14:23:39.207Z,4.13
2024-03-14T14:26:05.981Z,1.98
2024-03-14T14:28:32.391Z,3.03
2024-03-14T14:30:58.892Z,2.08
2024-03-14T14:33:27.510Z,2.17
2024-03-14T14:35:54.996Z,5.78
2024-03-14T14:38:21.462Z,2.10
2024-03-14T14:40:49.545Z,4.93
2024-03-14T14:43:17.968Z,3.00
2024-03-14T14:45:44.422Z,1.60
2024-03-14T14:48:14.072Z,1.63
2024-03-14T14:50:40.875Z,2.03
2024-03-14T14:53:07.637Z,2.03
2024-03-14T14:55:34.287Z,1.73
2024-03-14T14:58:03.276Z,1.83
2024-03-14T15:00:29.722Z,2.03
2024-03-14T15:02:56.260Z,2.03
2024-03-14T15:05:23.220Z,2.92
2024-03-14T15:07:51.403Z,1.95
2024-03-14T15:10:19.216Z,3.92
2024-03-14T15:12:53.936Z,7.38
2024-03-14T15:15:25.280Z,2.47
2024-03-14T15:17:52.447Z,2.05
2024-03-14T15:20:25.237Z,2.50
2024-03-14T15:22:53.991Z,2.53
2024-03-14T15:25:21.961Z,5.47
2024-03-14T15:27:48.922Z,1.80
2024-03-14T15:30:17.270Z,3.50
2024-03-14T15:32:44.773Z,2.35
2024-03-14T15:35:12.494Z,1.88
2024-03-14T15:37:39.790Z,2.40
2024-03-14T15:40:09.117Z,2.00
2024-03-14T15:42:35.939Z,1.50
2024-03-14T15:45:02.952Z,3.13
2024-03-14T15:47:29.399Z,2.53
2024-03-14T15:49:55.758Z,2.35
2024-03-14T15:52:22.156Z,1.40
2024-03-14T15:54:49.773Z,1.30
2024-03-14T15:57:16.572Z,1.67
2024-03-14T15:59:43.258Z,3.53
2024-03-14T16:02:10.542Z,2.47
2024-03-14T16:04:37.447Z,2.13
2024-03-14T16:07:04.140Z,1.95
2024-03-14T16:09:31.450Z,1.40
2024-03-14T16:11:59.065Z,1.80
2024-03-14T16:14:25.521Z,3.70
2024-03-14T16:16:51.876Z,2.17
2024-03-14T16:19:20.110Z,1.45
2024-03-14T16:21:49.133Z,1.23
2024-03-14T16:24:15.709Z,1.67
2024-03-14T16:26:43.113Z,1.85
2024-03-14T16:29:09.611Z,1.58
2024-03-14T16:31:37.678Z,3.63
2024-03-14T16:34:04.685Z,1.73
2024-03-14T16:36:34.726Z,1.80
2024-03-14T16:39:01.731Z,1.80
2024-03-14T16:41:32.868Z,2.78
2024-03-14T16:43:59.804Z,8.00
2024-03-14T16:46:29.448Z,5.00
2024-03-14T16:48:59.209Z,4.57
2024-03-14T16:51:25.843Z,2.33
2024-03-14T16:53:52.588Z,3.35
2024-03-14T16:56:19.176Z,2.30
2024-03-14T16:58:45.590Z,7.32
2024-03-14T17:01:13.963Z,3.53
2024-03-14T17:03:40.573Z,2.25
2024-03-14T17:06:07.146Z,2.38
2024-03-14T17:08:35.194Z,4.78
2024-03-14T17:11:02.312Z,3.47
2024-03-14T17:13:29.489Z,3.88
2024-03-14T17:15:56.047Z,2.95
2024-03-14T17:18:22.608Z,2.90
2024-03-14T17:20:54.697Z,6.93
2024-03-14T17:23:23.967Z,2.72
2024-03-14T17:25:51.153Z,6.10
2024-03-14T17:28:18.464Z,32.22
2024-03-14T17:30:45.029Z,3.10
2024-03-14T17:33:11.686Z,2.83
2024-03-14T17:35:38.210Z,2.97
2024-03-14T17:38:04.675Z,3.03
2024-03-14T17:40:31.163Z,4.80
2024-03-14T17:42:57.606Z,3.95
2024-03-14T17:45:26.957Z,2.60
2024-03-14T17:47:55.663Z,3.33
2024-03-14T17:50:24.077Z,4.15
2024-03-14T17:52:50.840Z,4.60
2024-03-14T17:55:17.584Z,5.47
2024-03-14T17:57:45.672Z,5.22
2024-03-14T18:00:14.832Z,3.28
2024-03-14T18:02:42.259Z,3.13
2024-03-14T18:05:10.263Z,2.95
2024-03-14T18:07:37.621Z,3.03
2024-03-14T18:10:04.691Z,6.80
2024-03-14T18:12:31.232Z,3.30
2024-03-14T18:14:57.696Z,5.80
2024-03-14T18:17:25.910Z,3.88
2024-03-14T18:19:53.762Z,3.63
2024-03-14T18:22:20.612Z,4.15
2024-03-14T18:24:47.820Z,2.95
2024-03-14T18:27:14.609Z,4.20
2024-03-14T18:29:41.269Z,3.63
2024-03-14T18:32:13.729Z,5.47
2024-03-14T18:34:41.164Z,3.45
2024-03-14T18:37:07.949Z,4.85
2024-03-14T18:39:34.539Z,6.15
2024-03-14T18:42:06.196Z,15.77
2024-03-14T18:44:34.015Z,3.97
2024-03-14T18:47:00.581Z,9.00
2024-03-14T18:49:27.148Z,7.57
2024-03-14T18:51:53.699Z,7.25
2024-03-14T18:54:20.180Z,8.27
2024-03-14T18:56:46.675Z,4.95
2024-03-14T18:59:13.065Z,11.65
2024-03-14T19:01:41.993Z,8.88
2024-03-14T19:04:10.460Z,5.38
2024-03-14T19:06:36.966Z,4.88
2024-03-14T19:09:03.539Z,4.25
2024-03-14T19:11:33.355Z,5.68
2024-03-14T19:14:01.053Z,5.32
2024-03-14T19:16:27.894Z,4.50
2024-03-14T19:18:56.238Z,4.38
2024-03-14T19:21:22.841Z,6.35
2024-03-14T19:23:49.573Z,9.02
2024-03-14T19:26:17.213Z,4.47
2024-03-14T19:28:43.685Z,7.32
2024-03-14T19:31:11.859Z,5.85
2024-03-14T19:33:38.525Z,4.47
2024-03-14T19:36:05.185Z,3.75
2024-03-14T19:38:33.271Z,9.35
2024-03-14T19:40:59.649Z,6.18
2024-03-14T19:43:26.158Z,7.22
2024-03-14T19:45:52.639Z,5.50
2024-03-14T19:48:20.385Z,5.90
2024-03-14T19:50:47.808Z,4.10
2024-03-14T19:53:15.110Z,7.15
2024-03-14T19:55:41.641Z,6.00
2024-03-14T19:58:08.590Z,8.43
2024-03-14T20:00:36.103Z,3.25
2024-03-14T20:03:03.711Z,3.80
2024-03-14T20:05:33.269Z,4.53
2024-03-14T20:08:00.212Z,7.88
2024-03-14T20:10:27.813Z,9.68
2024-03-14T20:12:54.990Z,3.50
2024-03-14T20:15:22.819Z,7.07
2024-03-14T20:17:49.552Z,3.50
2024-03-14T20:20:16.417Z,4.28
2024-03-14T20:22:42.994Z,7.47
2024-03-14T20:25:11.245Z,7.55
2024-03-14T20:27:38.396Z,3.28
2024-03-14T20:30:14.764Z,5.25
2024-03-14T20:32:43.444Z,9.65
2024-03-14T20:35:10.244Z,3.60
2024-03-14T20:37:37.740Z,6.68
2024-03-14T20:40:05.485Z,3.83
2024-03-14T20:42:33.251Z,3.05
2024-03-14T20:45:03.205Z,3.42
2024-03-14T20:47:30.505Z,3.35
2024-03-14T20:50:00.366Z,2.65
2024-03-14T20:52:27.821Z,3.50
2024-03-14T20:55:00.657Z,4.25
2024-03-14T20:57:28.446Z,4.68
2024-03-14T20:59:55.666Z,2.42
2024-03-14T21:02:25.792Z,1.95
2024-03-14T21:04:52.605Z,1.98
2024-03-14T21:09:52.203Z,2.17
2024-03-14T21:12:19.252Z,3.00
2024-03-14T21:14:45.747Z,7.53
2024-03-14T21:17:12.265Z,2.00
2024-03-14T21:19:38.725Z,3.90
2024-03-14T21:22:06.012Z,2.25
2024-03-14T21:24:32.962Z,2.28
2024-03-14T21:26:59.413Z,4.72
2024-03-14T21:29:25.850Z,4.75
2024-03-14T21:31:52.252Z,2.15
2024-03-14T21:34:20.562Z,4.68
2024-03-14T21:36:47.045Z,2.67
2024-03-14T21:39:13.888Z,7.05
2024-03-14T21:41:40.925Z,2.72
2024-03-14T21:44:08.900Z,4.72
2024-03-14T21:46:36.797Z,2.15
2024-03-14T21:49:03.230Z,6.53
2024-03-14T21:51:30.472Z,3.85
2024-03-14T21:53:56.897Z,2.30
2024-03-14T21:56:25.155Z,2.33
2024-03-14T21:58:54.661Z,10.10
2024-03-14T22:01:21.775Z,2.20
2024-03-14T22:03:48.525Z,5.43
2024-03-14T22:06:15.049Z,2.20
2024-03-14T22:08:41.476Z,2.65
2024-03-14T22:11:08.252Z,4.03
2024-03-14T22:13:34.716Z,2.22
2024-03-14T22:16:01.254Z,4.38
2024-03-14T22:18:27.878Z,3.78
2024-03-14T22:20:54.713Z,7.35
2024-03-14T22:23:21.086Z,2.80
2024-03-14T22:25:47.568Z,2.05
2024-03-14T22:28:15.789Z,3.20
2024-03-14T22:30:44.454Z,3.15
2024-03-14T22:33:12.615Z,2.97
2024-03-14T22:35:39.291Z,4.32
2024-03-14T22:38:06.813Z,4.63
2024-03-14T22:40:33.229Z,5.43
2024-03-14T22:42:59.785Z,3.53
2024-03-14T22:45:26.487Z,2.65
2024-03-14T22:47:53.313Z,3.92
2024-03-14T22:50:19.765Z,5.18
2024-03-14T22:52:46.208Z,3.25
2024-03-14T22:55:13.881Z,3.53
2024-03-14T22:57:40.300Z,3.83
2024-03-14T23:00:25.776Z,2.83
2024-03-14T23:02:52.333Z,7.03
2024-03-14T23:05:21.805Z,3.35
2024-03-14T23:07:49.435Z,6.07
2024-03-14T23:10:15.847Z,5.35
2024-03-14T23:12:42.330Z,3.15
2024-03-14T23:15:08.844Z,4.13
2024-03-14T23:17:35.442Z,5.55
2024-03-14T23:20:02.268Z,4.80
2024-03-14T23:22:28.682Z,4.15
2024-03-14T23:24:55.031Z,5.40
2024-03-14T23:27:21.461Z,5.07
2024-03-14T23:29:48.298Z,9.63
2024-03-14T23:32:14.663Z,7.40
2024-03-14T23:34:41.085Z,4.05
2024-03-14T23:37:08.359Z,7.05
2024-03-14T23:39:34.938Z,4.35
2024-03-14T23:42:02.539Z,4.30
2024-03-14T23:44:31.618Z,10.35
2024-03-14T23:47:00.574Z,3.60
2024-03-14T23:49:27.084Z,4.28
2024-03-14T23:51:53.543Z,4.35
2024-03-14T23:54:19.952Z,9.10
2024-03-14T23:56:46.370Z,5.45
2024-03-14T23:59:13.091Z,4.05
